Latest Weather Observations for Forbes

IDN60801

Issued at 4:35 am EDT Saturday 25 October 2014 (issued every 30 minutes, with the page automatically refreshed every 10 minutes)

About weather observations | Map of weather stations | Latest weather observations for NSW | Other Formats
Station Details ID: 065103 Name: FORBES AIRPORT AWS Lat: -33.36 Lon: 147.92 Height: 230.4 m
Data from the previous 72 hours. | See also: Recent months at Forbes
Date/Time
EDT
Temp
°C
App
Temp
°C
Dew
Point
Rel
Hum
%
Delta-T
°C
Wind Press
QNH
hPa
Press
MSL
hPa
Rain
since 9 am
mm
Dir
 
Spd
km/h
Gust
km/h
Spd
kts
Gust
kts
25/04:30am 13.0 12.6 8.1 72 2.5 ENE 0 0 0 0 1015.3 1014.9 0.0
25/04:00am 13.1 12.7 8.2 72 2.5 ENE 0 0 0 0 1014.9 1014.5 0.0
25/03:30am 13.8 12.1 8.2 69 2.8 ENE 7 9 4 5 1014.8 1014.4 0.0
25/03:00am 15.4 13.7 7.7 60 3.9 NE 6 7 3 4 1015.0 1014.6 0.0
25/02:30am 14.3 11.4 8.3 67 3.0 NNE 13 13 7 7 1014.8 1014.4 0.0
25/02:00am 15.2 13.3 7.5 60 3.9 N 7 9 4 5 1015.2 1014.8 0.0
25/01:30am 15.4 13.5 7.4 59 4.0 NNE 7 9 4 5 1015.4 1015.0 0.0
25/01:00am 15.7 13.7 7.2 57 4.3 W 7 9 4 5 1015.3 1014.9 0.0
25/12:30am 19.8 16.9 4.7 37 7.4 SW 9 11 5 6 1015.4 1015.0 0.0
25/12:00am 21.6 17.5 4.2 32 8.5 SW 15 17 8 9 1015.4 1015.0 0.0
 
Date/Time
EDT
Temp
°C
App
Temp
°C
Dew
Point
Rel
Hum
%
Delta-T
°C
Wind Press
QNH
hPa
Press
MSL
hPa
Rain
since 9 am
mm
Dir
 
Spd
km/h
Gust
km/h
Spd
kts
Gust
kts
24/11:30pm 21.7 17.7 4.7 33 8.4 SW 15 17 8 9 1015.2 1014.8 0.0
24/11:00pm 21.5 18.0 5.4 35 8.1 SSW 13 15 7 8 1015.0 1014.6 0.0
24/10:30pm 24.8 21.2 5.1 28 10.1 SSW 13 17 7 9 1014.8 1014.4 0.0
24/10:00pm 25.8 22.2 4.9 26 10.7 SW 13 17 7 9 1014.7 1014.3 0.0
24/09:30pm 26.0 22.5 5.6 27 10.6 SW 13 17 7 9 1014.4 1014.0 0.0
24/09:00pm 28.0 23.8 5.6 24 11.8 SW 17 22 9 12 1013.9 1013.5 0.0
24/08:30pm 28.0 23.8 5.6 24 11.8 WSW 17 22 9 12 1013.2 1012.8 0.0
24/08:00pm 26.5 23.5 6.0 27 10.7 W 11 13 6 7 1012.6 1012.2 0.0
24/07:30pm 28.5 25.5 6.0 24 11.9 W 11 13 6 7 1012.1 1011.7 0.0
24/07:00pm 30.5 26.8 4.3 19 13.7 WSW 13 19 7 10 1011.7 1011.3 0.0
24/06:30pm 31.8 27.1 2.9 16 14.8 WSW 17 28 9 15 1011.4 1011.0 0.0
24/06:00pm 33.9 29.5 2.7 14 16.2 WSW 15 17 8 9 1011.0 1010.6 0.0
24/05:31pm 33.3 26.2 1.2 13 16.2 WSW 28 46 15 25 1010.8 1010.4 0.0
24/05:30pm 33.4 25.7 0.1 12 16.5 WSW 30 46 16 25 1010.8 1010.4 0.0
24/05:21pm 33.7 26.3 -0.8 11 16.8 WSW 28 46 15 25 1010.5 1010.1 0.0
24/05:00pm 34.3 28.3 0.8 12 16.9 WSW 22 41 12 22 1010.2 1009.8 0.0
24/04:30pm 35.1 30.1 3.6 14 16.7 W 19 30 10 16 1010.0 1009.5 0.0
24/04:00pm 35.9 29.7 4.2 14 17.0 WNW 26 35 14 19 1010.4 1010.0 0.0
24/03:30pm 35.5 28.3 2.9 13 17.1 WNW 30 43 16 23 1010.7 1010.3 0.0
24/03:00pm 36.1 29.3 3.3 13 17.4 NW 28 48 15 26 1011.1 1010.7 0.0
24/02:30pm 35.0 29.6 6.3 17 15.8 NNW 24 33 13 18 1011.6 1011.2 0.0
24/02:00pm 35.8 29.2 7.8 18 15.9 NNW 32 46 17 25 1012.0 1011.6 0.0
24/01:34pm 35.9 30.3 8.7 19 15.6 NNW 28 46 15 25 1012.5 1012.1 0.0
24/01:30pm 35.4 28.9 8.3 19 15.4 NNW 32 46 17 25 1012.5 1012.1 0.0
24/01:07pm 34.3 27.6 7.4 19 15.0 NNW 32 50 17 27 1012.8 1012.4 0.0
24/01:00pm 34.4 27.2 7.5 19 15.1 NNW 35 48 19 26 1012.9 1012.5 0.0
24/12:49pm 34.0 27.0 8.6 21 14.4 N 35 56 19 30 1012.9 1012.5 0.0
24/12:30pm 33.3 25.8 8.0 21 14.2 N 37 48 20 26 1013.4 1012.9 0.0
24/12:22pm 33.3 26.5 9.4 23 13.7 N 35 54 19 29 1013.5 1013.0 0.0
24/12:00pm 32.5 25.9 8.7 23 13.5 N 33 44 18 24 1014.0 1013.6 0.0
24/11:45am 32.6 26.0 10.0 25 13.1 N 35 54 19 29 1014.2 1013.8 0.0
24/11:30am 31.9 25.3 10.0 26 12.6 N 35 50 19 27 1014.5 1014.1 0.0
24/11:00am 31.4 23.9 9.6 26 12.4 N 39 52 21 28 1014.8 1014.4 0.0
24/10:30am 30.3 22.5 9.8 28 11.7 N 41 54 22 29 1015.1 1014.7 0.0
24/10:00am 29.0 21.3 10.2 31 10.7 N 41 54 22 29 1015.7 1015.3 0.0
24/09:34am 28.1 20.0 9.9 32 10.3 N 43 61 23 33 1015.8 1015.4 0.0
24/09:30am 28.2 20.1 9.9 32 10.3 N 43 57 23 31 1015.8 1015.4 0.0
24/09:11am 27.3 20.3 10.1 34 9.7 N 37 56 20 30 1015.9 1015.5 0.0
24/09:00am 26.3 19.2 10.9 38 8.8 N 39 56 21 30 1016.0 1015.6 0.0
24/08:56am 25.9 19.3 10.1 37 8.9 N 35 54 19 29 1016.1 1015.7 0.0
24/08:30am 24.5 19.8 10.8 42 7.7 N 26 41 14 22 1016.5 1016.1 0.0
24/08:00am 23.0 18.0 10.8 46 6.8 NNE 28 35 15 19 1016.7 1016.3 0.0
24/07:30am 22.0 19.1 11.1 50 6.1 NNE 17 24 9 13 1016.7 1016.3 0.0
24/07:00am 19.1 17.9 11.7 62 4.1 N 9 17 5 9 1016.6 1016.2 0.0
24/06:30am 18.3 16.0 10.4 60 4.3 N 13 17 7 9 1016.4 1016.0 0.0
24/06:00am 20.3 18.8 10.4 53 5.4 ENE 9 13 5 7 1016.2 1015.8 0.0
24/05:30am 21.7 19.9 10.8 50 6.1 NE 11 15 6 8 1016.1 1015.7 0.0
24/05:00am 21.9 19.0 11.0 50 6.1 NNE 17 22 9 12 1015.6 1015.2 0.0
24/04:30am 20.4 18.8 11.6 57 4.9 NE 11 17 6 9 1015.6 1015.2 0.0
24/04:00am 19.8 18.9 11.3 58 4.7 NE 7 13 4 7 1015.8 1015.4 0.0
24/03:30am 19.9 18.3 11.7 59 4.6 ESE 11 17 6 9 1015.9 1015.5 0.0
24/03:00am 18.2 18.5 12.2 68 3.4 SE 2 7 1 4 1016.5 1016.1 0.0
24/02:30am 19.0 17.9 11.8 63 4.0 N 9 13 5 7 1016.1 1015.7 0.0
24/02:00am 20.5 18.8 11.2 55 5.2 N 11 17 6 9 1016.3 1015.9 0.0
24/01:30am 20.8 18.4 11.4 55 5.3 NNE 15 19 8 10 1016.2 1015.8 0.0
24/01:00am 22.3 19.7 10.8 48 6.4 N 15 22 8 12 1017.2 1016.8 0.0
24/12:30am 23.5 19.7 9.9 42 7.5 NNE 20 26 11 14 1016.0 1015.6 0.0
24/12:00am 24.8 19.7 9.1 37 8.6 NE 26 41 14 22 1016.3 1015.9 0.0
 
Date/Time
EDT
Temp
°C
App
Temp
°C
Dew
Point
Rel
Hum
%
Delta-T
°C
Wind Press
QNH
hPa
Press
MSL
hPa
Rain
since 9 am
mm
Dir
 
Spd
km/h
Gust
km/h
Spd
kts
Gust
kts
23/11:48pm 23.9 18.6 9.9 41 7.7 NE 28 41 15 22 1016.5 1016.1 0.0
23/11:30pm 21.9 18.7 9.8 46 6.6 WSW 17 22 9 12 1017.2 1016.8 0.0
23/11:00pm 21.2 19.1 9.8 48 6.2 NNE 11 13 6 7 1015.8 1015.4 0.0
23/10:30pm 22.8 20.7 9.6 43 7.2 NNE 11 13 6 7 1016.0 1015.6 0.0
23/10:00pm 21.9 18.9 9.1 44 6.9 NNE 15 17 8 9 1015.8 1015.4 0.0
23/09:30pm 23.2 20.6 9.2 41 7.6 NE 13 17 7 9 1015.8 1015.4 0.0
23/09:00pm 21.7 19.3 10.2 48 6.3 ENE 13 15 7 8 1015.4 1015.0 0.0
23/08:30pm 22.6 19.7 9.7 44 7.1 ENE 15 17 8 9 1015.2 1014.8 0.0
23/08:00pm 24.1 21.1 9.3 39 8.1 ENE 15 17 8 9 1014.8 1014.4 0.0
23/07:30pm 25.0 22.0 9.3 37 8.6 NNE 15 17 8 9 1014.5 1014.1 0.0
23/07:00pm 29.1 27.8 9.8 30 10.9 N 7 11 4 6 1014.4 1014.0 0.0
23/06:30pm 31.3 29.1 6.4 21 13.5 NNE 7 9 4 5 1014.2 1013.8 0.0
23/06:00pm 32.3 29.6 5.7 19 14.3 N 9 13 5 7 1014.2 1013.8 0.0
23/05:30pm 32.5 30.2 5.9 19 14.4 NE 7 15 4 8 1014.2 1013.8 0.0
23/05:00pm 32.9 30.1 7.0 20 14.3 N 11 19 6 10 1014.4 1014.0 0.0
23/04:30pm 32.8 30.6 5.4 18 14.7 N 6 13 3 7 1014.6 1014.2 0.0
23/04:00pm 33.3 30.8 6.6 19 14.7 N 9 17 5 9 1014.7 1014.3 0.0
23/03:30pm 32.5 30.4 6.7 20 14.1 SW 7 13 4 7 1014.9 1014.5 0.0
23/03:00pm 31.8 28.8 6.1 20 13.9 WNW 11 17 6 9 1015.3 1014.9 0.0
23/02:30pm 32.8 30.9 7.6 21 14.0 N 7 11 4 6 1015.7 1015.3 0.0
23/02:00pm 30.9 27.7 8.6 25 12.5 NNE 15 20 8 11 1016.1 1015.7 0.0
23/01:30pm 30.3 27.8 9.8 28 11.7 ENE 13 20 7 11 1016.8 1016.4 0.0
23/01:00pm 29.1 28.5 10.3 31 10.7 WSW 4 13 2 7 1017.3 1016.9 0.0
23/12:30pm 29.4 27.5 9.0 28 11.4 W 9 17 5 9 1018.1 1017.7 0.0
23/12:00pm 29.2 27.4 9.3 29 11.2 WNW 9 13 5 7 1018.4 1018.0 0.0
23/11:30am 27.4 25.9 9.3 32 10.1 N 7 15 4 8 1018.9 1018.5 0.0
23/11:00am 26.1 24.8 11.4 39 8.4 NNW 9 17 5 9 1019.3 1018.9 0.0
23/10:30am 23.0 20.7 14.0 57 5.3 NNW 19 20 10 11 1019.1 1018.7 0.0
23/10:00am 24.4 23.3 10.7 42 7.7 WSW 7 11 4 6 1019.9 1019.5 0.0
23/09:30am 24.1 20.3 11.1 44 7.3 NNW 22 30 12 16 1018.8 1018.4 0.0
23/09:00am 23.8 21.4 12.8 50 6.4 N 17 24 9 13 1018.6 1018.2 0.6
23/08:30am 23.5 21.5 12.8 51 6.2 NW 15 20 8 11 1019.6 1019.2 0.6
23/08:00am 19.1 17.9 12.8 67 3.6 NW 11 15 6 8 1019.1 1018.7 0.6
23/07:30am 19.0 17.2 13.4 70 3.2 N 15 19 8 10 1018.1 1017.7 0.6
23/07:00am 16.2 13.9 12.9 81 1.8 N 17 20 9 11 1017.9 1017.5 0.6
23/06:30am 15.8 14.8 13.5 86 1.3 ESE 11 17 6 9 1018.8 1018.4 0.4
23/06:00am 15.0 14.3 12.1 83 1.6 SW 7 11 4 6 1018.9 1018.5 0.0
23/05:30am 14.4 13.8 11.6 83 1.5 SSE 6 7 3 4 1018.4 1018.0 0.0
23/05:00am 13.8 12.4 10.8 82 1.6 ESE 9 9 5 5 1017.9 1017.5 0.0
23/04:30am 14.9 13.9 11.1 78 2.0 NE 7 9 4 5 1017.4 1017.0 0.0
23/04:00am 15.0 14.1 11.4 79 1.9 N 7 13 4 7 1017.3 1016.9 0.0
23/03:30am 14.7 13.8 11.5 81 1.7 N 7 11 4 6 1017.6 1017.3 0.0
23/03:00am 14.4 14.8 11.2 81 1.7 CALM 0 0 0 0 1017.1 1016.7 0.0
23/02:30am 15.0 14.2 11.2 78 2.1 ENE 6 7 3 4 1017.3 1016.9 0.0
23/02:00am 14.9 15.3 11.1 78 2.0 CALM 0 0 0 0 1017.4 1017.0 0.0
23/01:30am 16.0 14.8 11.6 75 2.4 NE 9 13 5 7 1017.5 1017.1 0.0
23/01:00am 16.6 14.9 11.3 71 2.9 E 11 13 6 7 1017.5 1017.1 0.0
23/12:30am 18.1 17.0 11.9 67 3.4 E 9 11 5 6 1017.9 1017.5 0.0
23/12:00am 17.4 16.7 12.1 71 2.9 SE 7 9 4 5 1018.1 1017.7 0.0
 
Date/Time
EDT
Temp
°C
App
Temp
°C
Dew
Point
Rel
Hum
%
Delta-T
°C
Wind Press
QNH
hPa
Press
MSL
hPa
Rain
since 9 am
mm
Dir
 
Spd
km/h
Gust
km/h
Spd
kts
Gust
kts
22/11:30pm 18.0 17.4 12.2 69 3.2 SE 7 9 4 5 1018.0 1017.6 0.0
22/11:00pm 19.4 18.7 11.9 62 4.2 NNE 7 11 4 6 1018.0 1017.6 0.0
22/10:30pm 19.1 19.8 12.1 64 3.9 CALM 0 0 0 0 1017.9 1017.5 0.0
22/10:00pm 20.2 18.9 11.1 56 5.0 ENE 9 11 5 6 1017.7 1017.4 0.0
22/09:30pm 20.4 18.8 11.6 57 4.9 ENE 11 11 6 6 1017.6 1017.3 0.0
22/09:00pm 20.9 18.9 11.5 55 5.3 ENE 13 13 7 7 1017.6 1017.3 0.0
22/08:30pm 21.7 19.6 11.1 51 5.9 E 13 13 7 7 1017.3 1016.9 0.0
22/08:00pm 23.8 22.0 10.8 44 7.3 E 11 13 6 7 1017.1 1016.7 0.0
22/07:30pm 25.5 23.6 10.5 39 8.5 E 11 13 6 7 1017.0 1016.6 0.0
22/07:00pm 27.2 27.5 10.8 36 9.4 CALM 0 0 0 0 1016.8 1016.4 0.0
22/06:30pm 28.8 28.6 10.5 32 10.5 NNE 2 7 1 4 1016.8 1016.4 0.0
22/06:00pm 29.3 28.0 9.9 30 11.0 ENE 7 13 4 7 1016.9 1016.5 0.0
22/05:30pm 30.3 28.6 9.8 28 11.7 N 9 17 5 9 1017.1 1016.7 0.0
22/05:00pm 29.7 26.6 8.7 27 11.7 NNW 15 22 8 12 1017.4 1017.0 0.0
22/04:30pm 30.7 27.9 10.1 28 11.8 N 15 22 8 12 1017.6 1017.3 0.0
22/04:00pm 29.8 26.6 9.9 29 11.3 N 17 26 9 14 1018.1 1017.7 0.0
22/03:30pm 29.7 26.6 10.3 30 11.1 NW 17 20 9 11 1018.6 1018.2 0.0
22/03:00pm 29.9 26.3 10.5 30 11.1 NNW 20 28 11 15 1019.0 1018.6 0.0
22/02:30pm 29.9 26.6 10.9 31 11.0 N 19 30 10 16 1019.4 1019.0 0.0
22/02:00pm 28.2 24.4 9.9 32 10.3 N 20 33 11 18 1020.1 1019.7 0.0
22/01:30pm 28.6 24.8 11.2 34 10.1 N 22 35 12 19 1020.7 1020.3 0.0
22/01:00pm 26.7 22.2 10.0 35 9.4 N 24 37 13 20 1021.2 1020.8 0.0
22/12:30pm 26.4 21.8 10.9 38 8.8 N 26 35 14 19 1021.8 1021.5 0.0
22/12:00pm 26.4 22.9 10.9 38 8.8 N 20 32 11 17 1022.3 1022.0 0.0
22/11:30am 23.9 19.2 9.1 39 8.1 N 24 32 13 17 1023.1 1022.7 0.0
22/11:00am 23.1 18.4 9.1 41 7.6 N 24 33 13 18 1023.7 1023.3 0.0
22/10:30am 22.0 18.0 9.2 44 6.9 NNE 20 32 11 17 1024.3 1023.9 0.0
22/10:00am 20.8 17.3 8.8 46 6.4 ENE 17 24 9 13 1024.5 1024.1 0.0
22/09:30am 19.1 15.8 9.6 54 5.1 NNE 17 19 9 10 1024.7 1024.3 0.0
22/09:00am 17.3 14.3 9.2 59 4.2 NNE 15 20 8 11 1024.8 1024.4 0.0
22/08:30am 16.0 13.4 9.2 64 3.5 N 13 22 7 12 1024.8 1024.4 0.0
22/08:00am 14.1 12.4 9.7 75 2.3 N 9 13 5 7 1024.5 1024.1 0.0
22/07:30am 13.2 11.9 10.0 81 1.7 E 7 9 4 5 1024.0 1023.6 0.0
22/07:00am 11.1 9.2 9.2 88 1.0 E 9 11 5 6 1024.1 1023.7 0.0
22/06:30am 10.3 8.0 9.1 92 0.6 E 11 13 6 7 1023.7 1023.3 0.0
22/06:00am 10.1 8.0 8.4 89 0.8 ENE 9 13 5 7 1023.8 1023.4 0.0
22/05:30am 10.0 7.6 8.8 92 0.6 ENE 11 13 6 7 1023.4 1023.0 0.0
22/05:00am 9.5 9.1 8.1 91 0.7 CALM 0 0 0 0 1023.5 1023.1 0.0

Other Formats:

Comma delimited format used in spreadsheet applications
http://www.bom.gov.au/fwo/IDN60801/IDN60801.94715.axf

JavaScript Object Notation format (JSON) in row-major order
http://www.bom.gov.au/fwo/IDN60801/IDN60801.94715.json